Time;durP1;ratioP1;P1;durP2;ratioP2;P2;SDS_P1;SDS_P2;PMS_P1;PMS_P2;Temp;Humidity;BMP_temperature;BMP_pressure;BME280_temperature;BME280_humidity;BME280_pressure;Samples;Min_cycle;Max_cycle;Signal;HPM_P1;HPM_P2
2021/10/11 00:01:38;;;;;;;6.30;2.97;;;;;;;;;;5073505;28;20033;-73
2021/10/11 00:04:03;;;;;;;6.25;3.58;;;;;;;;;;5073284;28;20040;-74
2021/10/11 00:06:29;;;;;;;7.80;3.60;;;;;;;;;;5073126;28;20097;-75
2021/10/11 00:08:54;;;;;;;5.45;3.38;;;;;;;;;;5073663;28;20602;-75
2021/10/11 00:11:19;;;;;;;3.35;2.58;;;;;;;;;;5073319;28;20024;-75
2021/10/11 00:13:45;;;;;;;7.90;3.28;;;;;;;;;;5067203;28;20490;-76
2021/10/11 00:16:12;;;;;;;3.40;2.72;;;;;;;;;;5053144;28;20123;-74
2021/10/11 00:18:37;;;;;;;8.18;5.25;;;;;;;;;;5052124;28;20110;-75
2021/10/11 00:21:03;;;;;;;4.38;2.80;;;;;;;;;;5052486;28;20083;-76
2021/10/11 00:23:28;;;;;;;5.07;3.53;;;;;;;;;;5053686;28;20502;-74
2021/10/11 00:25:53;;;;;;;5.07;3.65;;;;;;;;;;5052993;28;20564;-73
2021/10/11 00:28:19;;;;;;;3.90;3.55;;;;;;;;;;5052878;28;20041;-74
2021/10/11 00:30:44;;;;;;;5.57;4.05;;;;;;;;;;5063708;28;20123;-72
2021/10/11 00:33:09;;;;;;;3.92;2.83;;;;;;;;;;5087096;28;20040;-74
2021/10/11 00:35:35;;;;;;;6.03;3.47;;;;;;;;;;5086381;28;20071;-74
2021/10/11 00:38:00;;;;;;;4.00;3.55;;;;;;;;;;5085915;28;20403;-75
2021/10/11 00:40:26;;;;;;;8.30;3.47;;;;;;;;;;5056418;28;20401;-73
2021/10/11 00:42:51;;;;;;;3.55;2.70;;;;;;;;;;5073980;28;20075;-75
2021/10/11 00:45:17;;;;;;;4.40;2.83;;;;;;;;;;5039346;28;20028;-74
2021/10/11 00:47:42;;;;;;;5.70;3.72;;;;;;;;;;5073559;28;20402;-74
2021/10/11 00:50:08;;;;;;;4.50;3.67;;;;;;;;;;5071092;28;20037;-74
2021/10/11 00:52:34;;;;;;;8.68;3.10;;;;;;;;;;5073135;28;20036;-74
2021/10/11 00:55:00;;;;;;;3.95;3.20;;;;;;;;;;5073277;28;20051;-74
2021/10/11 00:57:25;;;;;;;3.95;3.00;;;;;;;;;;5073153;28;20039;-76
2021/10/11 00:59:50;;;;;;;5.90;4.13;;;;;;;;;;5072586;28;20082;-75
2021/10/11 01:02:16;;;;;;;4.30;3.30;;;;;;;;;;5072740;28;20036;-75
2021/10/11 01:04:41;;;;;;;4.65;4.00;;;;;;;;;;5071024;28;20033;-74
2021/10/11 01:07:07;;;;;;;6.45;4.10;;;;;;;;;;5069857;28;20040;-74
2021/10/11 01:09:32;;;;;;;6.80;4.03;;;;;;;;;;5070824;28;20033;-75
2021/10/11 01:11:59;;;;;;;5.80;3.08;;;;;;;;;;5070807;28;20123;-74
2021/10/11 01:14:25;;;;;;;5.53;3.05;;;;;;;;;;5052978;28;20060;-76
2021/10/11 01:16:51;;;;;;;4.78;3.60;;;;;;;;;;5070886;28;20495;-74
2021/10/11 01:19:17;;;;;;;5.60;3.67;;;;;;;;;;5070853;28;20032;-74
2021/10/11 01:21:42;;;;;;;7.00;3.75;;;;;;;;;;5070895;28;20494;-76
2021/10/11 01:24:08;;;;;;;9.00;3.50;;;;;;;;;;5070700;28;20707;-75
2021/10/11 01:26:39;;;;;;;6.97;3.47;;;;;;;;;;5070218;28;20036;-75
2021/10/11 01:29:05;;;;;;;4.60;3.47;;;;;;;;;;5070673;28;20035;-75
2021/10/11 01:31:32;;;;;;;5.38;4.10;;;;;;;;;;5053054;28;20078;-75
2021/10/11 01:33:57;;;;;;;7.43;3.85;;;;;;;;;;5070765;28;20501;-75
2021/10/11 01:36:23;;;;;;;5.05;3.85;;;;;;;;;;5070590;28;20059;-76
2021/10/11 01:38:49;;;;;;;5.43;4.40;;;;;;;;;;5070688;28;20493;-75
2021/10/11 01:41:15;;;;;;;4.35;3.15;;;;;;;;;;5052914;28;20907;-73
2021/10/11 01:43:40;;;;;;;7.72;3.40;;;;;;;;;;5070912;28;20068;-75
2021/10/11 01:46:05;;;;;;;4.88;3.95;;;;;;;;;;5070955;28;20032;-75
2021/10/11 01:48:31;;;;;;;7.95;4.15;;;;;;;;;;5070956;28;20090;-75
2021/10/11 01:50:56;;;;;;;8.90;3.28;;;;;;;;;;5071457;28;20040;-75
2021/10/11 01:53:21;;;;;;;6.32;4.05;;;;;;;;;;5071431;28;20119;-74
2021/10/11 01:55:47;;;;;;;6.15;4.45;;;;;;;;;;5071508;28;20028;-74
2021/10/11 01:58:12;;;;;;;7.57;4.53;;;;;;;;;;5071230;28;20032;-75
2021/10/11 02:00:38;;;;;;;6.95;3.60;;;;;;;;;;5071197;28;20036;-74
2021/10/11 02:03:06;;;;;;;6.07;3.30;;;;;;;;;;5071136;28;20039;-75
2021/10/11 02:05:33;;;;;;;6.82;4.45;;;;;;;;;;5071183;28;20036;-74
2021/10/11 02:07:58;;;;;;;3.90;3.42;;;;;;;;;;5070856;28;20028;-74
2021/10/11 02:10:24;;;;;;;4.18;3.33;;;;;;;;;;5070780;28;20527;-73
2021/10/11 02:12:49;;;;;;;5.15;2.67;;;;;;;;;;5071632;28;20064;-74
2021/10/11 02:15:15;;;;;;;2.70;2.22;;;;;;;;;;5071745;28;20512;-73
2021/10/11 02:17:40;;;;;;;4.80;3.00;;;;;;;;;;5071451;28;20047;-76
2021/10/11 02:20:06;;;;;;;3.65;3.35;;;;;;;;;;5071505;28;20042;-74
2021/10/11 02:22:32;;;;;;;3.75;2.65;;;;;;;;;;5071526;28;20032;-73
2021/10/11 02:24:57;;;;;;;4.28;3.17;;;;;;;;;;5071383;28;20490;-75
2021/10/11 02:27:23;;;;;;;4.38;3.50;;;;;;;;;;5071644;28;20043;-75
2021/10/11 02:29:48;;;;;;;3.75;2.67;;;;;;;;;;5071788;28;20520;-76
2021/10/11 02:32:14;;;;;;;3.78;2.75;;;;;;;;;;5071415;28;20039;-75
2021/10/11 02:34:39;;;;;;;7.03;3.97;;;;;;;;;;5071120;28;20056;-74
2021/10/11 02:37:04;;;;;;;4.38;3.88;;;;;;;;;;5071241;28;20025;-74
2021/10/11 02:39:30;;;;;;;3.42;2.97;;;;;;;;;;5071563;28;20040;-73
2021/10/11 02:41:55;;;;;;;7.32;3.60;;;;;;;;;;5071390;28;20032;-75
2021/10/11 02:44:20;;;;;;;6.78;4.25;;;;;;;;;;5071537;28;20115;-75
2021/10/11 02:46:46;;;;;;;5.13;3.08;;;;;;;;;;5071314;28;20506;-74
2021/10/11 02:49:11;;;;;;;4.70;3.28;;;;;;;;;;5071294;28;20177;-74
2021/10/11 02:51:37;;;;;;;4.97;3.65;;;;;;;;;;5071108;28;20481;-75
2021/10/11 02:54:02;;;;;;;3.78;3.33;;;;;;;;;;5071104;28;20043;-75
2021/10/11 02:56:27;;;;;;;4.75;4.22;;;;;;;;;;5071041;28;20037;-75
2021/10/11 02:58:53;;;;;;;4.40;3.63;;;;;;;;;;5071261;28;20451;-73
2021/10/11 03:01:18;;;;;;;6.00;2.90;;;;;;;;;;5071172;28;20039;-74
2021/10/11 03:03:43;;;;;;;4.47;3.83;;;;;;;;;;5071082;28;20036;-73
2021/10/11 03:06:09;;;;;;;8.02;3.58;;;;;;;;;;5071000;28;20036;-74
2021/10/11 03:08:35;;;;;;;4.30;3.72;;;;;;;;;;5071074;28;20401;-74
2021/10/11 03:11:02;;;;;;;8.00;4.20;;;;;;;;;;5070808;28;20032;-75
2021/10/11 03:13:28;;;;;;;2.47;2.25;;;;;;;;;;5071019;28;20098;-74
2021/10/11 03:15:54;;;;;;;5.07;3.50;;;;;;;;;;5071106;28;20040;-76
2021/10/11 03:18:20;;;;;;;5.07;3.70;;;;;;;;;;5070987;28;20553;-76
2021/10/11 03:20:45;;;;;;;8.05;3.80;;;;;;;;;;5053009;28;20024;-74
2021/10/11 03:23:10;;;;;;;5.53;3.85;;;;;;;;;;5070730;28;20041;-75
2021/10/11 03:25:36;;;;;;;6.68;6.03;;;;;;;;;;5070722;28;20374;-74
2021/10/11 03:28:01;;;;;;;9.82;4.20;;;;;;;;;;5070658;28;20036;-74
2021/10/11 03:30:26;;;;;;;4.75;4.18;;;;;;;;;;5073866;28;20028;-75
2021/10/11 03:32:52;;;;;;;5.10;4.43;;;;;;;;;;5074805;28;20032;-75
2021/10/11 03:35:17;;;;;;;5.68;4.28;;;;;;;;;;5074318;28;20091;-75
2021/10/11 03:37:43;;;;;;;4.72;4.30;;;;;;;;;;5074536;28;20405;-75
2021/10/11 03:40:08;;;;;;;6.07;4.03;;;;;;;;;;5074487;28;20543;-74
2021/10/11 03:42:34;;;;;;;6.25;4.50;;;;;;;;;;5056088;28;20050;-74
2021/10/11 03:44:59;;;;;;;6.22;3.13;;;;;;;;;;5074308;28;20131;-74
2021/10/11 03:47:25;;;;;;;7.38;4.28;;;;;;;;;;5055626;28;20032;-75
2021/10/11 03:49:50;;;;;;;6.22;4.72;;;;;;;;;;5074235;28;20040;-73
2021/10/11 03:52:15;;;;;;;6.20;5.50;;;;;;;;;;5073953;28;20377;-74
2021/10/11 03:54:41;;;;;;;6.25;3.67;;;;;;;;;;5073935;28;20033;-74
2021/10/11 03:57:06;;;;;;;6.85;6.20;;;;;;;;;;5073940;28;20393;-74
2021/10/11 03:59:31;;;;;;;7.60;5.07;;;;;;;;;;5073739;28;20036;-74
2021/10/11 04:01:57;;;;;;;5.55;3.75;;;;;;;;;;5073989;28;20085;-74
2021/10/11 04:04:23;;;;;;;4.65;3.50;;;;;;;;;;5073921;28;20438;-74
2021/10/11 04:06:50;;;;;;;4.93;3.47;;;;;;;;;;5073948;28;20029;-75
2021/10/11 04:09:15;;;;;;;7.53;3.83;;;;;;;;;;5055529;28;20033;-76
2021/10/11 04:11:41;;;;;;;5.43;4.50;;;;;;;;;;5073746;28;20050;-75
2021/10/11 04:14:07;;;;;;;6.60;3.75;;;;;;;;;;5073459;28;20189;-76
2021/10/11 04:16:32;;;;;;;6.93;3.75;;;;;;;;;;5073000;28;20064;-74
2021/10/11 04:18:58;;;;;;;5.35;4.60;;;;;;;;;;5073766;28;20063;-76
2021/10/11 04:21:23;;;;;;;7.97;3.90;;;;;;;;;;5073373;28;20042;-75
2021/10/11 04:23:49;;;;;;;7.00;3.78;;;;;;;;;;5073399;28;20032;-74
2021/10/11 04:26:14;;;;;;;7.45;4.00;;;;;;;;;;5073310;28;20032;-75
2021/10/11 04:28:40;;;;;;;4.63;3.00;;;;;;;;;;5073589;28;20470;-76
2021/10/11 04:31:06;;;;;;;6.15;4.25;;;;;;;;;;5072664;28;20056;-76
2021/10/11 04:33:32;;;;;;;9.85;4.18;;;;;;;;;;5054354;28;20105;-74
2021/10/11 04:35:58;;;;;;;5.35;4.43;;;;;;;;;;5072736;28;20084;-74
2021/10/11 04:38:24;;;;;;;5.65;4.38;;;;;;;;;;5073098;28;20059;-75
2021/10/11 04:40:49;;;;;;;7.63;4.95;;;;;;;;;;5072840;28;20032;-75
2021/10/11 04:43:15;;;;;;;7.10;4.53;;;;;;;;;;5073030;28;20028;-74
2021/10/11 04:45:41;;;;;;;11.02;6.65;;;;;;;;;;5073226;28;20220;-76
2021/10/11 04:48:08;;;;;;;7.80;4.70;;;;;;;;;;5072996;28;20057;-72
2021/10/11 04:50:34;;;;;;;6.20;3.88;;;;;;;;;;5072085;28;20078;-71
2021/10/11 04:53:00;;;;;;;9.60;4.72;;;;;;;;;;5072741;28;20064;-71
2021/10/11 04:55:26;;;;;;;8.20;4.20;;;;;;;;;;5054617;28;20047;-72
2021/10/11 04:57:51;;;;;;;5.50;4.82;;;;;;;;;;5072572;28;20028;-70
2021/10/11 05:00:19;;;;;;;6.60;4.22;;;;;;;;;;5072376;28;20101;-71
2021/10/11 05:02:44;;;;;;;9.15;4.88;;;;;;;;;;5054561;28;20842;-71
2021/10/11 05:05:10;;;;;;;6.82;4.10;;;;;;;;;;5072452;28;20036;-71
2021/10/11 05:07:35;;;;;;;6.38;4.90;;;;;;;;;;5072332;28;20032;-71
2021/10/11 05:10:01;;;;;;;4.10;2.85;;;;;;;;;;5072496;28;20119;-71
2021/10/11 05:12:28;;;;;;;5.22;4.13;;;;;;;;;;5072968;28;20399;-79
2021/10/11 05:14:53;;;;;;;4.95;3.22;;;;;;;;;;5073657;28;20044;-84
2021/10/11 05:17:20;;;;;;;7.72;4.68;;;;;;;;;;5055866;28;20033;-84
2021/10/11 05:19:45;;;;;;;9.77;5.07;;;;;;;;;;5057003;28;20476;-84
2021/10/11 05:22:12;;;;;;;9.60;3.70;;;;;;;;;;5073648;28;20044;-84
2021/10/11 05:24:37;;;;;;;5.50;4.85;;;;;;;;;;5074002;28;20524;-83
2021/10/11 05:27:04;;;;;;;8.68;4.90;;;;;;;;;;5072952;28;20127;-84
2021/10/11 05:29:29;;;;;;;6.30;4.00;;;;;;;;;;5074124;28;20509;-83
2021/10/11 05:31:55;;;;;;;7.10;4.93;;;;;;;;;;5072951;28;20032;-83
2021/10/11 05:34:22;;;;;;;7.43;3.78;;;;;;;;;;5073529;28;20072;-86
2021/10/11 05:36:47;;;;;;;6.78;4.10;;;;;;;;;;5073640;28;20032;-84
2021/10/11 05:39:12;;;;;;;5.72;3.70;;;;;;;;;;5073259;28;20047;-83
2021/10/11 05:41:39;;;;;;;9.10;5.28;;;;;;;;;;5055317;28;20379;-85
2021/10/11 05:44:05;;;;;;;6.85;4.88;;;;;;;;;;5073609;28;20041;-85
2021/10/11 05:46:30;;;;;;;7.43;5.20;;;;;;;;;;5072336;28;20065;-79
2021/10/11 05:48:56;;;;;;;11.00;4.13;;;;;;;;;;5080973;28;20050;-75
2021/10/11 05:51:21;;;;;;;6.65;4.65;;;;;;;;;;5089749;28;20037;-77
2021/10/11 05:53:47;;;;;;;11.40;5.40;;;;;;;;;;5092996;28;20028;-76
2021/10/11 05:56:12;;;;;;;11.25;5.10;;;;;;;;;;5083917;28;20071;-74
2021/10/11 05:58:38;;;;;;;13.23;5.45;;;;;;;;;;5072460;28;20450;-76
2021/10/11 06:01:04;;;;;;;7.70;5.30;;;;;;;;;;5072426;28;20124;-77
2021/10/11 06:03:30;;;;;;;6.07;5.45;;;;;;;;;;5072967;28;20516;-76
2021/10/11 06:05:55;;;;;;;7.47;4.70;;;;;;;;;;5071485;28;20123;-74
2021/10/11 06:08:21;;;;;;;9.40;5.30;;;;;;;;;;5071838;28;20024;-75
2021/10/11 06:10:46;;;;;;;8.88;4.38;;;;;;;;;;5071570;28;20032;-76
2021/10/11 06:13:12;;;;;;;8.57;5.03;;;;;;;;;;5071347;28;20032;-76
2021/10/11 06:15:38;;;;;;;6.38;4.18;;;;;;;;;;5070665;28;20443;-76
2021/10/11 06:18:03;;;;;;;7.03;5.05;;;;;;;;;;5071193;28;20506;-76
2021/10/11 06:20:29;;;;;;;5.82;4.35;;;;;;;;;;5071307;28;20044;-76
2021/10/11 06:22:55;;;;;;;8.50;5.40;;;;;;;;;;5071301;28;20047;-78
2021/10/11 06:25:20;;;;;;;8.18;4.78;;;;;;;;;;5053593;28;20035;-77
2021/10/11 06:27:45;;;;;;;5.63;4.15;;;;;;;;;;5036723;28;20032;-77
2021/10/11 06:30:11;;;;;;;7.47;4.60;;;;;;;;;;5073602;28;20064;-75
2021/10/11 06:32:37;;;;;;;7.57;5.72;;;;;;;;;;5053227;28;20506;-76
2021/10/11 06:35:02;;;;;;;8.05;4.68;;;;;;;;;;5070848;28;20052;-76
2021/10/11 06:37:28;;;;;;;6.35;4.30;;;;;;;;;;5070481;28;20032;-75
2021/10/11 06:39:53;;;;;;;8.05;5.30;;;;;;;;;;5071332;28;20032;-77
2021/10/11 06:42:19;;;;;;;10.32;4.75;;;;;;;;;;5071164;28;20032;-77
2021/10/11 06:44:44;;;;;;;8.25;5.43;;;;;;;;;;5052859;28;20386;-76
2021/10/11 06:47:13;;;;;;;4.90;3.22;;;;;;;;;;5070737;28;20035;-76
2021/10/11 06:49:38;;;;;;;8.93;4.88;;;;;;;;;;5070761;28;20075;-76
2021/10/11 06:52:04;;;;;;;8.40;5.85;;;;;;;;;;5071231;28;20056;-76
2021/10/11 06:54:30;;;;;;;8.60;5.72;;;;;;;;;;5071183;28;20083;-77
2021/10/11 06:56:56;;;;;;;10.52;5.15;;;;;;;;;;5071049;28;20038;-77
2021/10/11 06:59:21;;;;;;;7.93;5.10;;;;;;;;;;5071161;28;20048;-76
2021/10/11 07:01:47;;;;;;;8.93;5.18;;;;;;;;;;5070426;28;20036;-79
2021/10/11 07:04:13;;;;;;;11.70;6.20;;;;;;;;;;5071867;28;20119;-77
2021/10/11 07:06:39;;;;;;;8.80;5.18;;;;;;;;;;5074750;28;20028;-78
2021/10/11 07:09:04;;;;;;;8.90;5.38;;;;;;;;;;5057248;28;20037;-77
2021/10/11 07:11:29;;;;;;;7.85;5.65;;;;;;;;;;5075184;28;20040;-76
2021/10/11 07:13:55;;;;;;;10.00;6.82;;;;;;;;;;5074798;28;20409;-77
2021/10/11 07:16:20;;;;;;;9.02;5.78;;;;;;;;;;5075250;28;20118;-78
2021/10/11 07:18:46;;;;;;;11.18;5.10;;;;;;;;;;5074990;28;20028;-77
2021/10/11 07:21:11;;;;;;;9.55;5.93;;;;;;;;;;5074768;28;20112;-78
2021/10/11 07:23:37;;;;;;;8.38;4.60;;;;;;;;;;5074701;28;20047;-78
2021/10/11 07:26:05;;;;;;;7.95;5.22;;;;;;;;;;5074471;28;20032;-79
2021/10/11 07:28:31;;;;;;;9.38;5.18;;;;;;;;;;5056163;28;20409;-78
2021/10/11 07:30:56;;;;;;;10.27;5.85;;;;;;;;;;5074461;28;20037;-77
2021/10/11 07:33:22;;;;;;;8.38;5.72;;;;;;;;;;5074928;28;20037;-77
2021/10/11 07:35:51;;;;;;;7.68;6.03;;;;;;;;;;5074215;28;20064;-77
2021/10/11 07:38:17;;;;;;;14.38;6.57;;;;;;;;;;5074391;28;20124;-76
2021/10/11 07:40:43;;;;;;;9.13;5.45;;;;;;;;;;5074283;28;20411;-78
2021/10/11 07:43:08;;;;;;;9.90;6.47;;;;;;;;;;5074059;28;20039;-77
2021/10/11 07:45:34;;;;;;;10.82;6.63;;;;;;;;;;5074089;28;20037;-76
2021/10/11 07:47:59;;;;;;;12.38;5.47;;;;;;;;;;5073910;28;20173;-76
2021/10/11 07:50:25;;;;;;;7.40;4.93;;;;;;;;;;5074071;28;20477;-78
2021/10/11 07:52:50;;;;;;;8.80;5.82;;;;;;;;;;5074381;28;20102;-75
2021/10/11 07:55:16;;;;;;;8.50;6.25;;;;;;;;;;5074129;28;20436;-77
2021/10/11 07:57:42;;;;;;;7.68;4.75;;;;;;;;;;5073457;28;20033;-76
2021/10/11 08:00:20;;;;;;;10.38;6.88;;;;;;;;;;5073904;28;20490;-76
2021/10/11 08:02:46;;;;;;;9.00;5.53;;;;;;;;;;5055704;28;20436;-75
2021/10/11 08:05:15;;;;;;;8.90;4.93;;;;;;;;;;5073879;28;20032;-76
2021/10/11 08:07:44;;;;;;;8.20;5.10;;;;;;;;;;5073921;28;20623;-76
2021/10/11 08:10:11;;;;;;;10.02;6.10;;;;;;;;;;5055928;28;20033;-77
2021/10/11 08:12:37;;;;;;;6.60;4.32;;;;;;;;;;5073830;28;20066;-76
2021/10/11 08:15:04;;;;;;;9.20;5.78;;;;;;;;;;5072977;28;20119;-77
2021/10/11 08:17:30;;;;;;;11.43;6.82;;;;;;;;;;5073667;28;20031;-76
2021/10/11 08:19:55;;;;;;;13.63;7.05;;;;;;;;;;5073513;28;20037;-77
2021/10/11 08:22:21;;;;;;;12.75;9.23;;;;;;;;;;5073422;28;20244;-76
2021/10/11 08:24:48;;;;;;;9.63;6.07;;;;;;;;;;5073394;28;20036;-77
2021/10/11 08:27:17;;;;;;;9.43;4.93;;;;;;;;;;5072727;28;20164;-76
2021/10/11 08:29:51;;;;;;;10.02;5.60;;;;;;;;;;5055389;28;20041;-76
2021/10/11 08:32:20;;;;;;;10.05;6.32;;;;;;;;;;5073416;28;20032;-77
2021/10/11 08:34:46;;;;;;;8.80;5.50;;;;;;;;;;5055083;28;20134;-77
2021/10/11 08:37:11;;;;;;;11.38;6.57;;;;;;;;;;5072977;28;20045;-77
2021/10/11 08:39:37;;;;;;;11.65;6.97;;;;;;;;;;5073326;28;20508;-77
2021/10/11 08:42:05;;;;;;;9.60;6.20;;;;;;;;;;5073285;28;20029;-79
2021/10/11 08:44:31;;;;;;;9.95;5.90;;;;;;;;;;5073151;28;20033;-77
2021/10/11 08:46:58;;;;;;;10.20;7.10;;;;;;;;;;5073287;28;20154;-73
2021/10/11 08:49:24;;;;;;;9.98;6.03;;;;;;;;;;5055266;28;20047;-72
2021/10/11 08:51:50;;;;;;;8.88;4.60;;;;;;;;;;5073461;28;20028;-72
2021/10/11 08:54:15;;;;;;;7.18;5.43;;;;;;;;;;5073021;28;20046;-72
2021/10/11 08:56:41;;;;;;;12.40;6.22;;;;;;;;;;5072704;28;20043;-73
2021/10/11 08:59:06;;;;;;;9.75;6.90;;;;;;;;;;5072757;28;20401;-73
2021/10/11 09:01:32;;;;;;;10.05;5.82;;;;;;;;;;5072853;28;20470;-73
2021/10/11 09:04:02;;;;;;;7.97;4.88;;;;;;;;;;5054942;28;20044;-73
2021/10/11 09:06:28;;;;;;;14.57;5.68;;;;;;;;;;5072655;28;20064;-73
2021/10/11 09:08:53;;;;;;;7.25;5.65;;;;;;;;;;5072320;28;20074;-72
2021/10/11 09:11:18;;;;;;;6.18;4.28;;;;;;;;;;5072571;28;20029;-73
2021/10/11 09:13:51;;;;;;;6.50;4.63;;;;;;;;;;5050177;28;20820;-74
2021/10/11 09:16:40;;;;;;;8.50;4.93;;;;;;;;;;5071074;28;20083;-73
2021/10/11 09:19:17;;;;;;;8.27;4.90;;;;;;;;;;5071970;28;20041;-73
2021/10/11 09:21:42;;;;;;;8.73;6.88;;;;;;;;;;5070535;28;20040;-74
2021/10/11 09:24:12;;;;;;;10.10;6.05;;;;;;;;;;5071207;28;20393;-72
2021/10/11 09:26:48;;;;;;;9.18;5.00;;;;;;;;;;5069141;28;20501;-72
2021/10/11 09:29:15;;;;;;;8.57;4.55;;;;;;;;;;5052823;28;20036;-72
2021/10/11 09:31:45;;;;;;;11.93;7.47;;;;;;;;;;5052024;28;20398;-71
2021/10/11 09:34:15;;;;;;;9.80;4.50;;;;;;;;;;5069850;28;20032;-71
2021/10/11 09:36:41;;;;;;;10.20;6.43;;;;;;;;;;5069183;28;20066;-71
2021/10/11 09:39:06;;;;;;;9.88;5.78;;;;;;;;;;5068254;28;20028;-75
2021/10/11 09:41:32;;;;;;;11.93;7.60;;;;;;;;;;5067971;28;20347;-73
2021/10/11 09:43:57;;;;;;;11.32;6.53;;;;;;;;;;5067223;28;20039;-72
2021/10/11 09:46:24;;;;;;;12.25;6.95;;;;;;;;;;5069898;28;20047;-72
2021/10/11 09:48:50;;;;;;;8.40;5.72;;;;;;;;;;5051409;28;20406;-73
2021/10/11 09:51:16;;;;;;;11.18;5.93;;;;;;;;;;5068097;28;20478;-73
2021/10/11 09:53:43;;;;;;;7.43;4.55;;;;;;;;;;5052530;28;20035;-73
2021/10/11 09:56:08;;;;;;;9.98;5.70;;;;;;;;;;5052331;28;20033;-72
2021/10/11 09:58:35;;;;;;;8.20;4.50;;;;;;;;;;5068129;28;20025;-73
2021/10/11 10:01:00;;;;;;;6.35;4.63;;;;;;;;;;5069831;28;20162;-74
2021/10/11 10:03:26;;;;;;;8.18;4.55;;;;;;;;;;5069300;28;20123;-73
2021/10/11 10:05:55;;;;;;;5.72;3.80;;;;;;;;;;5070548;28;20075;-71
2021/10/11 10:08:22;;;;;;;7.95;5.00;;;;;;;;;;5070424;28;20032;-75
2021/10/11 10:10:56;;;;;;;6.40;4.47;;;;;;;;;;5070509;28;20029;-74
2021/10/11 10:13:26;;;;;;;8.68;5.45;;;;;;;;;;5052626;28;20417;-74
2021/10/11 10:15:55;;;;;;;10.45;5.35;;;;;;;;;;5070354;28;20032;-72
2021/10/11 10:18:22;;;;;;;8.00;5.50;;;;;;;;;;5068971;28;20056;-73
2021/10/11 10:21:00;;;;;;;7.68;5.63;;;;;;;;;;5068446;28;20037;-73
2021/10/11 10:23:30;;;;;;;8.23;5.38;;;;;;;;;;5070176;28;20052;-74
2021/10/11 10:25:57;;;;;;;7.78;5.57;;;;;;;;;;5070128;28;20044;-74
2021/10/11 10:28:24;;;;;;;7.28;5.35;;;;;;;;;;5069548;28;20052;-74
2021/10/11 10:30:59;;;;;;;6.53;4.65;;;;;;;;;;5071431;28;20028;-74
2021/10/11 10:33:41;;;;;;;7.50;4.70;;;;;;;;;;5070491;28;20118;-73
2021/10/11 10:36:26;;;;;;;8.30;4.90;;;;;;;;;;5070565;28;20048;-74
2021/10/11 10:39:04;;;;;;;9.57;5.40;;;;;;;;;;5070342;28;20060;-75
2021/10/11 10:41:30;;;;;;;14.30;5.30;;;;;;;;;;5070247;28;20115;-75
2021/10/11 10:43:57;;;;;;;8.07;5.28;;;;;;;;;;5070497;28;20044;-74
2021/10/11 10:46:22;;;;;;;6.43;4.13;;;;;;;;;;5052489;28;20028;-73
2021/10/11 10:48:50;;;;;;;7.85;4.47;;;;;;;;;;5069410;28;20039;-73
2021/10/11 10:51:16;;;;;;;11.02;4.63;;;;;;;;;;5069233;28;20103;-74
2021/10/11 10:53:53;;;;;;;6.47;4.85;;;;;;;;;;5069494;28;20040;-73
2021/10/11 10:56:19;;;;;;;8.55;4.60;;;;;;;;;;5069310;28;20032;-69
2021/10/11 10:58:46;;;;;;;6.55;4.10;;;;;;;;;;5070526;28;20037;-77
2021/10/11 11:01:12;;;;;;;8.80;4.68;;;;;;;;;;5052998;28;20029;-77
2021/10/11 11:03:37;;;;;;;5.57;4.38;;;;;;;;;;5052725;28;20131;-79
2021/10/11 11:06:06;;;;;;;11.07;5.97;;;;;;;;;;5079727;28;20054;-77
2021/10/11 11:08:31;;;;;;;7.88;4.60;;;;;;;;;;5060897;28;20036;-77
2021/10/11 11:11:01;;;;;;;7.25;4.63;;;;;;;;;;5077877;28;20055;-77
2021/10/11 11:13:27;;;;;;;7.13;5.00;;;;;;;;;;5071813;28;20028;-81
2021/10/11 11:15:53;;;;;;;10.70;5.82;;;;;;;;;;5071336;28;20040;-79
2021/10/11 11:18:24;;;;;;;7.07;4.70;;;;;;;;;;5053928;28;20508;-79
2021/10/11 11:20:53;;;;;;;9.45;4.93;;;;;;;;;;5053949;28;20064;-78
2021/10/11 11:23:23;;;;;;;5.68;3.97;;;;;;;;;;5069942;28;20374;-78
2021/10/11 11:25:53;;;;;;;5.72;3.53;;;;;;;;;;5068453;28;20044;-75
2021/10/11 11:28:22;;;;;;;5.50;3.72;;;;;;;;;;5052272;28;20528;-79
2021/10/11 11:30:55;;;;;;;5.35;4.00;;;;;;;;;;5069064;28;20489;-81
2021/10/11 11:33:25;;;;;;;9.57;5.70;;;;;;;;;;5069176;28;20032;-77
2021/10/11 11:35:53;;;;;;;5.75;3.67;;;;;;;;;;5051793;28;20040;-77
2021/10/11 11:38:21;;;;;;;4.50;3.88;;;;;;;;;;5051673;28;20032;-76
2021/10/11 11:40:51;;;;;;;5.57;4.40;;;;;;;;;;5050596;28;20028;-77
2021/10/11 11:43:18;;;;;;;8.73;4.72;;;;;;;;;;5069497;28;20402;-77
2021/10/11 11:45:46;;;;;;;9.05;4.97;;;;;;;;;;5069015;28;20039;-77
2021/10/11 11:48:28;;;;;;;6.50;4.40;;;;;;;;;;5032984;28;20029;-76
2021/10/11 11:51:01;;;;;;;7.47;4.63;;;;;;;;;;5070667;28;20051;-73
2021/10/11 11:53:29;;;;;;;7.60;5.05;;;;;;;;;;5055233;28;20032;-72
2021/10/11 11:55:56;;;;;;;6.55;4.10;;;;;;;;;;5071657;28;20036;-75
2021/10/11 11:58:33;;;;;;;9.75;4.55;;;;;;;;;;5073614;28;20478;-75
2021/10/11 12:01:11;;;;;;;7.97;5.15;;;;;;;;;;5055162;28;20036;-73
2021/10/11 12:03:44;;;;;;;8.98;4.80;;;;;;;;;;5055217;28;20420;-74
2021/10/11 12:06:10;;;;;;;8.05;5.15;;;;;;;;;;5054664;28;20382;-75
2021/10/11 12:08:35;;;;;;;7.95;4.53;;;;;;;;;;5054881;28;20051;-74
2021/10/11 12:11:02;;;;;;;8.27;4.38;;;;;;;;;;5071600;28;20034;-75
2021/10/11 12:13:33;;;;;;;6.97;4.82;;;;;;;;;;5073143;28;20046;-75
2021/10/11 12:16:07;;;;;;;12.80;4.80;;;;;;;;;;5054812;28;20060;-74
2021/10/11 12:18:36;;;;;;;6.25;4.72;;;;;;;;;;5071834;28;20040;-75
2021/10/11 12:21:02;;;;;;;7.75;3.83;;;;;;;;;;5073066;28;20071;-75
2021/10/11 12:23:39;;;;;;;6.95;4.25;;;;;;;;;;5073518;28;20072;-74
2021/10/11 12:26:05;;;;;;;7.38;4.82;;;;;;;;;;5072712;28;20056;-76
2021/10/11 12:28:31;;;;;;;7.45;3.45;;;;;;;;;;5054748;28;20466;-74
2021/10/11 12:31:02;;;;;;;5.22;3.65;;;;;;;;;;5072506;28;20124;-74
2021/10/11 12:33:36;;;;;;;5.38;4.07;;;;;;;;;;5053917;28;20421;-76
2021/10/11 12:36:02;;;;;;;7.25;5.32;;;;;;;;;;5072427;28;20052;-76
2021/10/11 12:38:38;;;;;;;7.97;3.05;;;;;;;;;;5071559;28;20032;-73
2021/10/11 12:41:17;;;;;;;9.35;4.40;;;;;;;;;;5071903;28;20039;-75
2021/10/11 12:43:57;;;;;;;4.47;3.58;;;;;;;;;;5071370;28;20040;-70
2021/10/11 12:46:24;;;;;;;6.00;4.68;;;;;;;;;;5072642;28;20098;-74
2021/10/11 12:48:59;;;;;;;9.85;4.32;;;;;;;;;;5070531;28;20033;-71
2021/10/11 12:51:35;;;;;;;7.65;4.10;;;;;;;;;;5053532;28;20098;-73
2021/10/11 12:54:06;;;;;;;;;;;;;;;;;;5053694;28;20038;-72
2021/10/11 12:56:34;;;;;;;11.15;4.28;;;;;;;;;;5053878;28;20397;-73
2021/10/11 12:59:02;;;;;;;7.05;4.10;;;;;;;;;;5070880;28;20029;-74
2021/10/11 13:01:29;;;;;;;8.38;4.43;;;;;;;;;;5070547;28;20039;-72
2021/10/11 13:03:55;;;;;;;6.63;5.43;;;;;;;;;;5071072;28;20444;-73
2021/10/11 13:06:28;;;;;;;6.32;3.30;;;;;;;;;;5054619;28;20063;-71
2021/10/11 13:08:58;;;;;;;6.35;3.80;;;;;;;;;;5071786;28;20032;-71
2021/10/11 13:11:24;;;;;;;;;;;;;;;;;;5071001;28;20572;-74
2021/10/11 13:13:49;;;;;;;5.30;4.38;;;;;;;;;;5071578;28;19923;-70
2021/10/11 13:16:15;;;;;;;5.90;3.88;;;;;;;;;;5070708;28;20085;-73
2021/10/11 13:18:40;;;;;;;5.35;3.50;;;;;;;;;;5070301;28;20024;-70
2021/10/11 13:21:09;;;;;;;8.18;5.22;;;;;;;;;;5071622;28;20043;-72
2021/10/11 13:23:35;;;;;;;7.00;4.95;;;;;;;;;;5053232;28;20509;-73
2021/10/11 13:26:02;;;;;;;9.50;4.80;;;;;;;;;;5052470;28;20086;-73
2021/10/11 13:28:27;;;;;;;5.25;4.13;;;;;;;;;;5071551;28;20505;-71
2021/10/11 14:27:50;;;;;;;8.82;4.80;;;;;;;;;;5051146;28;20044;-80
2021/10/11 15:55:44;;;;;;;14.80;5.82;;;;;;;;;;5072414;28;20056;-79
2021/10/11 16:00:23;;;;;;;10.23;6.18;;;;;;;;;;5072980;28;20105;-80
2021/10/11 16:02:51;;;;;;;10.45;5.78;;;;;;;;;;5074180;28;20036;-79
2021/10/11 16:05:17;;;;;;;7.15;5.45;;;;;;;;;;5074341;28;20166;-80
2021/10/11 16:07:44;;;;;;;8.48;6.40;;;;;;;;;;5056158;28;20817;-81
2021/10/11 16:10:12;;;;;;;12.80;7.38;;;;;;;;;;5073734;28;20037;-79
2021/10/11 16:12:39;;;;;;;10.88;6.22;;;;;;;;;;5074239;28;20034;-79
2021/10/11 16:15:07;;;;;;;9.48;5.85;;;;;;;;;;5057158;28;20029;-80
2021/10/11 16:17:33;;;;;;;8.32;4.55;;;;;;;;;;5057258;28;20033;-80
2021/10/11 16:20:01;;;;;;;6.65;5.18;;;;;;;;;;5074053;28;20029;-80
2021/10/11 16:22:27;;;;;;;10.43;5.22;;;;;;;;;;5064497;28;20032;-78
2021/10/11 16:24:52;;;;;;;9.52;6.50;;;;;;;;;;5091176;28;20047;-79
2021/10/11 16:27:18;;;;;;;8.73;6.00;;;;;;;;;;5074140;28;20040;-79
2021/10/11 16:29:45;;;;;;;8.32;5.72;;;;;;;;;;5084651;28;20024;-80
2021/10/11 16:32:10;;;;;;;7.97;5.78;;;;;;;;;;5055638;28;20055;-79
2021/10/11 16:34:35;;;;;;;12.93;5.07;;;;;;;;;;5074274;28;20024;-79
2021/10/11 16:37:01;;;;;;;8.73;6.28;;;;;;;;;;5072577;28;20405;-80
2021/10/11 16:39:27;;;;;;;10.10;5.78;;;;;;;;;;5071663;28;20045;-79
2021/10/11 16:41:53;;;;;;;12.18;6.35;;;;;;;;;;5072212;28;20036;-81
2021/10/11 16:44:18;;;;;;;8.55;5.20;;;;;;;;;;5072205;28;20539;-79
2021/10/11 16:46:43;;;;;;;8.73;5.13;;;;;;;;;;5073129;28;20051;-77
2021/10/11 16:49:09;;;;;;;6.68;4.75;;;;;;;;;;5073293;28;20060;-78
2021/10/11 16:51:35;;;;;;;10.63;6.53;;;;;;;;;;5073675;28;20079;-80
2021/10/11 16:56:33;;;;;;;11.15;5.93;;;;;;;;;;5072409;28;20493;-79
2021/10/11 16:59:00;;;;;;;9.70;4.43;;;;;;;;;;5071900;28;20096;-80
2021/10/11 17:01:26;;;;;;;7.63;5.80;;;;;;;;;;5071867;28;20117;-82
2021/10/11 17:03:57;;;;;;;10.07;6.45;;;;;;;;;;5072738;28;20048;-78
2021/10/11 17:06:26;;;;;;;8.43;6.13;;;;;;;;;;5072751;28;20033;-82